METAR Data
IDs: Format: Raw Decoded Include TAF

Data at: 0821 UTC 03 Aug 2021

KIGQ 030815Z AUTO 00000KT 10SM SCT100 15/14 A3012 RMK AO2 T01460136